Time;durP1;ratioP1;P1;durP2;ratioP2;P2;SDS_P1;SDS_P2;PMS_P1;PMS_P2;Temp;Humidity;BMP_temperature;BMP_pressure;BME280_temperature;BME280_humidity;BME280_pressure;Samples;Min_cycle;Max_cycle;Signal;HPM_P1;HPM_P2
2022/12/03 00:01:46;;;;;;;49.07;25.10;;;1.10;99.90;;;;;;5076773;28;20609;-72
2022/12/03 00:04:13;;;;;;;49.20;24.97;;;1.10;99.90;;;;;;5077881;28;20219;-72
2022/12/03 00:06:40;;;;;;;52.63;25.57;;;1.10;99.90;;;;;;5080450;28;20294;-72
2022/12/03 00:09:06;;;;;;;51.00;24.53;;;1.10;99.90;;;;;;5083701;28;20193;-73
2022/12/03 00:11:34;;;;;;;51.97;26.10;;;1.10;99.90;;;;;;5084470;28;20201;-72
2022/12/03 00:14:01;;;;;;;48.77;25.03;;;1.10;99.90;;;;;;5082815;28;20725;-73
2022/12/03 00:16:27;;;;;;;48.97;25.80;;;1.00;99.90;;;;;;5084210;28;20201;-72
2022/12/03 00:18:54;;;;;;;53.23;26.47;;;1.00;99.90;;;;;;5082963;28;20709;-72
2022/12/03 00:21:21;;;;;;;50.13;25.73;;;1.10;99.90;;;;;;5082745;28;20196;-72
2022/12/03 00:23:47;;;;;;;50.13;24.43;;;1.10;99.90;;;;;;5081359;28;20193;-72
2022/12/03 00:26:14;;;;;;;49.20;24.80;;;1.10;99.90;;;;;;5078861;28;20463;-71
2022/12/03 00:28:42;;;;;;;52.83;25.53;;;1.10;99.90;;;;;;5077495;28;20197;-72
2022/12/03 00:31:08;;;;;;;49.23;24.43;;;1.10;99.90;;;;;;5076673;28;20209;-72
2022/12/03 00:33:35;;;;;;;50.03;24.50;;;1.10;99.90;;;;;;5075607;28;20717;-72
2022/12/03 00:36:02;;;;;;;49.30;25.60;;;1.10;99.90;;;;;;5075587;28;20201;-72
2022/12/03 00:38:28;;;;;;;54.97;26.43;;;1.10;99.90;;;;;;5075997;28;20231;-72
2022/12/03 00:40:55;;;;;;;52.20;26.13;;;1.10;99.90;;;;;;5075558;28;20246;-72
2022/12/03 00:43:22;;;;;;;54.40;25.57;;;1.10;99.90;;;;;;5075515;28;20262;-72
2022/12/03 00:45:50;;;;;;;55.17;26.30;;;1.10;99.90;;;;;;5075331;28;20275;-72
2022/12/03 00:48:16;;;;;;;53.73;25.67;;;1.10;99.90;;;;;;5075480;28;20246;-72
2022/12/03 00:50:43;;;;;;;54.37;25.20;;;1.10;99.90;;;;;;5075110;28;20197;-71
2022/12/03 00:53:10;;;;;;;57.27;25.50;;;1.10;99.90;;;;;;5075752;28;20197;-71
2022/12/03 00:55:36;;;;;;;57.60;25.77;;;1.10;99.90;;;;;;5076171;28;20204;-72
2022/12/03 00:58:03;;;;;;;55.40;25.93;;;1.10;99.90;;;;;;5075900;28;20201;-72
2022/12/03 01:00:29;;;;;;;53.83;25.87;;;1.10;99.90;;;;;;5076415;28;20648;-72
2022/12/03 01:02:57;;;;;;;59.73;26.57;;;1.20;99.90;;;;;;5075578;28;20247;-72
2022/12/03 01:05:24;;;;;;;59.33;25.03;;;1.20;99.90;;;;;;5075232;28;20274;-72
2022/12/03 01:07:51;;;;;;;55.83;26.37;;;1.20;99.90;;;;;;5075095;28;20233;-71
2022/12/03 01:10:17;;;;;;;58.33;27.67;;;1.10;99.90;;;;;;5075307;28;20197;-72
2022/12/03 01:12:44;;;;;;;56.30;26.57;;;1.10;99.90;;;;;;5075315;28;20583;-71
2022/12/03 01:15:11;;;;;;;59.87;26.80;;;1.10;99.90;;;;;;5075337;28;20586;-72
2022/12/03 01:17:38;;;;;;;59.27;26.23;;;1.10;99.90;;;;;;5075022;28;20494;-72
2022/12/03 01:20:08;;;;;;;54.73;25.43;;;1.10;99.90;;;;;;5075380;28;20204;-72
2022/12/03 01:22:35;;;;;;;56.87;26.93;;;1.20;99.90;;;;;;5075406;28;20204;-71
2022/12/03 01:25:02;;;;;;;61.03;27.17;;;1.20;99.90;;;;;;5075557;28;20591;-72
2022/12/03 01:27:29;;;;;;;67.23;28.07;;;1.20;99.90;;;;;;5075320;28;20246;-72
2022/12/03 01:29:55;;;;;;;60.50;26.77;;;1.20;99.90;;;;;;5075122;28;20262;-72
2022/12/03 01:32:21;;;;;;;61.37;26.33;;;1.20;99.90;;;;;;5074833;28;20619;-72
2022/12/03 01:34:49;;;;;;;59.30;26.27;;;1.20;99.90;;;;;;5074716;28;20254;-72
2022/12/03 01:37:18;;;;;;;60.13;26.30;;;1.20;99.90;;;;;;5074881;28;20205;-72
2022/12/03 01:39:45;;;;;;;56.33;25.23;;;1.20;99.90;;;;;;5074583;28;20204;-72
2022/12/03 01:42:16;;;;;;;57.30;26.93;;;1.20;99.90;;;;;;5074503;28;20197;-72
2022/12/03 01:44:44;;;;;;;57.07;26.53;;;1.20;99.90;;;;;;5074272;28;20197;-71
2022/12/03 01:47:16;;;;;;;57.67;26.27;;;1.20;99.90;;;;;;5074203;28;20696;-72
2022/12/03 01:49:46;;;;;;;51.17;24.43;;;1.20;99.90;;;;;;5074250;28;20660;-71
2022/12/03 01:52:15;;;;;;;55.13;27.23;;;1.20;99.90;;;;;;5074163;28;20205;-72
2022/12/03 01:54:47;;;;;;;58.60;25.50;;;1.20;99.90;;;;;;5074263;28;20193;-72
2022/12/03 01:57:20;;;;;;;63.57;26.77;;;1.20;99.90;;;;;;5073991;28;20246;-72
2022/12/03 01:59:48;;;;;;;59.80;27.80;;;1.20;99.90;;;;;;5074265;28;20258;-71
2022/12/03 02:02:19;;;;;;;59.57;25.70;;;1.10;99.90;;;;;;5073977;28;20193;-72
2022/12/03 02:04:46;;;;;;;61.87;28.07;;;1.20;99.90;;;;;;5074165;28;20232;-72
2022/12/03 02:07:18;;;;;;;61.80;28.00;;;1.10;99.90;;;;;;5074029;28;20240;-72
2022/12/03 02:09:46;;;;;;;67.53;27.90;;;1.20;99.90;;;;;;5073949;28;20242;-71
2022/12/03 02:12:13;;;;;;;57.77;26.33;;;1.20;99.90;;;;;;5073938;28;20648;-72
2022/12/03 02:14:40;;;;;;;61.07;26.60;;;1.10;99.90;;;;;;5073906;28;20201;-72
2022/12/03 02:17:07;;;;;;;57.43;25.03;;;1.10;99.90;;;;;;5073756;28;20201;-72
2022/12/03 02:19:34;;;;;;;59.37;26.13;;;1.20;99.90;;;;;;5073696;28;20205;-72
2022/12/03 02:22:07;;;;;;;61.10;27.73;;;1.20;99.90;;;;;;5074177;28;20197;-72
2022/12/03 02:24:40;;;;;;;52.30;24.57;;;1.20;99.90;;;;;;5073837;28;20193;-72
2022/12/03 02:27:08;;;;;;;57.73;25.63;;;1.20;99.90;;;;;;5073657;28;20224;-72
2022/12/03 02:29:35;;;;;;;60.10;26.03;;;1.20;99.90;;;;;;5073720;28;20193;-72
2022/12/03 02:32:01;;;;;;;61.77;26.30;;;1.20;99.90;;;;;;5073560;28;20201;-72
2022/12/03 02:34:36;;;;;;;58.77;27.17;;;1.20;99.90;;;;;;5073517;28;20201;-72
2022/12/03 02:37:05;;;;;;;60.93;26.87;;;1.20;99.90;;;;;;5073467;28;20204;-72
2022/12/03 02:39:34;;;;;;;67.87;28.07;;;1.30;99.90;;;;;;5073791;28;20250;-72
2022/12/03 02:44:46;;;;;;;64.33;26.93;;;1.30;99.90;;;;;;5074805;28;20200;-72
2022/12/03 02:47:13;;;;;;;60.53;26.20;;;1.30;99.90;;;;;;5074076;28;20753;-72
2022/12/03 02:49:40;;;;;;;61.70;26.13;;;1.30;99.90;;;;;;5073696;28;20254;-72
2022/12/03 02:52:07;;;;;;;61.43;26.87;;;1.30;99.90;;;;;;5073500;28;20541;-72
2022/12/03 02:54:34;;;;;;;61.47;28.33;;;1.20;99.90;;;;;;5073369;28;20197;-72
2022/12/03 02:57:01;;;;;;;56.17;26.37;;;1.20;99.90;;;;;;5073402;28;20204;-72
2022/12/03 02:59:28;;;;;;;62.37;27.60;;;1.20;99.90;;;;;;5073325;28;20197;-72
2022/12/03 03:01:56;;;;;;;61.13;27.13;;;1.20;99.90;;;;;;5073689;28;20196;-72
2022/12/03 03:04:24;;;;;;;62.30;27.60;;;1.20;99.90;;;;;;5073816;28;20656;-71
2022/12/03 03:06:51;;;;;;;58.57;25.87;;;1.20;99.90;;;;;;5073029;28;20267;-71
2022/12/03 03:09:19;;;;;;;58.87;27.97;;;1.20;99.90;;;;;;5073377;28;20220;-71
2022/12/03 03:11:45;;;;;;;58.10;26.60;;;1.20;99.90;;;;;;5073582;28;20208;-71
2022/12/03 03:14:12;;;;;;;51.40;25.60;;;1.20;99.90;;;;;;5074780;28;20201;-71
2022/12/03 03:16:39;;;;;;;57.90;26.27;;;1.20;99.90;;;;;;5077715;28;20622;-71
2022/12/03 03:19:07;;;;;;;54.43;26.17;;;1.20;99.90;;;;;;5077786;28;20204;-71
2022/12/03 03:21:34;;;;;;;58.03;28.40;;;1.20;99.90;;;;;;5077761;28;20205;-71
2022/12/03 03:24:01;;;;;;;59.00;27.50;;;1.30;99.90;;;;;;5077342;28;20193;-71
2022/12/03 03:26:27;;;;;;;62.03;27.73;;;1.30;99.90;;;;;;5076992;28;20683;-72
2022/12/03 03:28:54;;;;;;;60.87;28.80;;;1.30;99.90;;;;;;5077140;28;20254;-71
2022/12/03 03:31:23;;;;;;;58.90;28.40;;;1.20;99.90;;;;;;5077001;28;20223;-71
2022/12/03 03:33:50;;;;;;;61.37;29.30;;;1.30;99.90;;;;;;5077086;28;20209;-72
2022/12/03 03:36:19;;;;;;;56.97;27.67;;;1.20;99.90;;;;;;5076581;28;20678;-72
2022/12/03 03:38:47;;;;;;;57.93;28.27;;;1.20;99.90;;;;;;5076726;28;20201;-72
2022/12/03 03:41:14;;;;;;;58.87;28.60;;;1.20;99.90;;;;;;5076981;28;20648;-72
2022/12/03 03:43:43;;;;;;;59.87;28.10;;;1.30;99.90;;;;;;5076575;28;20201;-73
2022/12/03 03:46:10;;;;;;;58.27;29.27;;;1.30;99.90;;;;;;5076650;28;20263;-72
2022/12/03 03:48:38;;;;;;;60.30;29.43;;;1.30;99.90;;;;;;5076894;28;20246;-73
2022/12/03 03:51:08;;;;;;;59.23;28.97;;;1.40;99.90;;;;;;5078081;28;20226;-72
2022/12/03 03:53:37;;;;;;;62.83;28.83;;;1.30;99.90;;;;;;5076643;28;20228;-72
2022/12/03 03:56:04;;;;;;;56.40;28.37;;;1.30;99.90;;;;;;5076412;28;20197;-72
2022/12/03 03:58:31;;;;;;;57.87;27.60;;;1.30;99.90;;;;;;5079174;28;20717;-73
2022/12/03 04:00:57;;;;;;;53.87;26.97;;;1.20;99.90;;;;;;5083836;28;20197;-73
2022/12/03 04:03:24;;;;;;;60.33;27.63;;;1.30;99.90;;;;;;5084407;28;20656;-73
2022/12/03 04:05:51;;;;;;;51.43;25.60;;;1.30;99.90;;;;;;5081564;28;20652;-73
2022/12/03 04:08:18;;;;;;;52.73;26.77;;;1.30;99.90;;;;;;5080540;28;20354;-72
2022/12/03 04:13:30;;;;;;;55.77;27.17;;;1.30;99.90;;;;;;5080262;28;20208;-73
2022/12/03 04:15:56;;;;;;;56.13;26.37;;;1.30;99.90;;;;;;5080463;28;20231;-73
2022/12/03 04:23:51;;;;;;;52.87;26.83;;;1.30;99.90;;;;;;5074920;28;20290;-73
2022/12/03 04:29:04;;;;;;;54.97;26.23;;;1.30;99.90;;;;;;5075999;28;20204;-73
2022/12/03 04:36:59;;;;;;;51.63;26.27;;;1.30;99.90;;;;;;5082975;28;20243;-73
2022/12/03 04:39:25;;;;;;;54.70;27.13;;;1.30;99.90;;;;;;5083269;28;20196;-73
2022/12/03 04:41:53;;;;;;;55.17;26.97;;;1.30;99.90;;;;;;5083334;28;20197;-73
2022/12/03 04:44:35;;;;;;;54.87;26.80;;;1.40;99.90;;;;;;5083588;28;20205;-73
2022/12/03 04:47:06;;;;;;;52.03;24.67;;;1.30;99.90;;;;;;5083893;28;20248;-74
2022/12/03 04:49:33;;;;;;;50.57;24.80;;;1.30;99.90;;;;;;5078154;28;20270;-72
2022/12/03 04:52:00;;;;;;;51.43;25.90;;;1.30;99.90;;;;;;5074322;28;20656;-72
2022/12/03 04:54:27;;;;;;;49.37;25.63;;;1.30;99.90;;;;;;5074396;28;20197;-72
2022/12/03 04:56:55;;;;;;;51.93;25.10;;;1.30;99.90;;;;;;5074523;28;20197;-72
2022/12/03 04:59:22;;;;;;;48.20;24.70;;;1.30;99.90;;;;;;5074544;28;20201;-72
2022/12/03 05:01:48;;;;;;;48.57;26.30;;;1.30;99.90;;;;;;5074324;28;20200;-72
2022/12/03 05:04:15;;;;;;;48.47;24.53;;;1.30;99.90;;;;;;5074256;28;20204;-71
2022/12/03 05:06:43;;;;;;;50.37;25.83;;;1.30;99.90;;;;;;4444614;28;17800633;-72
2022/12/03 05:09:09;;;;;;;50.83;25.27;;;1.30;99.90;;;;;;5060854;28;20599;-72
2022/12/03 05:11:36;;;;;;;50.03;25.90;;;1.40;99.90;;;;;;5075311;28;20204;-72
2022/12/03 05:14:05;;;;;;;47.47;24.57;;;1.30;99.90;;;;;;5075075;28;20201;-72
2022/12/03 05:16:31;;;;;;;49.17;25.87;;;1.30;99.90;;;;;;5075019;28;20231;-72
2022/12/03 05:18:58;;;;;;;49.30;25.80;;;1.30;99.90;;;;;;5075007;28;20683;-72
2022/12/03 05:21:25;;;;;;;47.30;24.60;;;1.30;99.90;;;;;;5074849;28;20258;-72
2022/12/03 05:23:51;;;;;;;50.53;25.90;;;1.30;99.90;;;;;;5075005;28;20251;-72
2022/12/03 05:26:18;;;;;;;49.17;26.50;;;1.30;99.90;;;;;;5074736;28;20201;-72
2022/12/03 05:28:45;;;;;;;45.20;24.03;;;1.30;99.90;;;;;;5074758;28;20246;-72
2022/12/03 05:31:13;;;;;;;48.23;25.13;;;1.30;99.90;;;;;;5074483;28;20211;-72
2022/12/03 05:33:39;;;;;;;47.80;25.80;;;1.30;99.90;;;;;;5074493;28;20201;-72
2022/12/03 05:36:07;;;;;;;44.63;24.30;;;1.30;99.90;;;;;;5074328;28;20251;-72
2022/12/03 05:38:33;;;;;;;46.03;24.57;;;1.30;99.90;;;;;;5074504;28;20201;-72
2022/12/03 05:41:00;;;;;;;51.20;26.37;;;1.30;99.90;;;;;;5074849;28;20220;-72
2022/12/03 05:43:26;;;;;;;44.70;25.97;;;1.30;99.90;;;;;;5074836;28;20598;-72
2022/12/03 05:45:52;;;;;;;51.17;25.23;;;1.30;99.90;;;;;;5074678;28;20201;-72
2022/12/03 05:48:20;;;;;;;47.20;24.83;;;1.30;99.90;;;;;;5078602;28;20756;-72
2022/12/03 05:50:47;;;;;;;50.13;25.23;;;1.30;99.90;;;;;;5083199;28;20243;-72
2022/12/03 05:53:15;;;;;;;48.63;25.23;;;1.30;99.90;;;;;;5083396;28;20197;-72
2022/12/03 05:55:42;;;;;;;50.90;26.37;;;1.30;99.90;;;;;;5082046;28;20258;-74
2022/12/03 05:58:10;;;;;;;45.57;25.43;;;1.30;99.90;;;;;;5077442;28;20227;-72
2022/12/03 06:00:38;;;;;;;45.77;25.30;;;1.30;99.90;;;;;;5075915;28;20201;-72
2022/12/03 06:03:06;;;;;;;47.37;25.53;;;1.30;99.90;;;;;;5075866;28;20204;-72
2022/12/03 06:05:34;;;;;;;48.87;27.07;;;1.30;99.90;;;;;;5074701;28;20258;-72
2022/12/03 06:08:01;;;;;;;49.07;26.90;;;1.20;99.90;;;;;;5074042;28;20264;-72
2022/12/03 06:10:28;;;;;;;49.90;26.37;;;1.30;99.90;;;;;;5074401;28;20201;-72
2022/12/03 06:12:55;;;;;;;45.50;26.00;;;1.30;99.90;;;;;;5074742;28;20220;-72
2022/12/03 06:15:22;;;;;;;51.43;26.53;;;1.30;99.90;;;;;;5074726;28;20201;-72
2022/12/03 06:17:49;;;;;;;46.63;25.30;;;1.30;99.90;;;;;;5074520;28;20192;-72
2022/12/03 06:20:18;;;;;;;49.60;25.57;;;1.30;99.90;;;;;;5074775;28;20193;-72
2022/12/03 06:22:46;;;;;;;49.97;24.90;;;1.30;99.90;;;;;;5076304;28;20193;-72
2022/12/03 06:25:14;;;;;;;45.60;25.83;;;1.30;99.90;;;;;;5076157;28;20198;-72
2022/12/03 06:27:41;;;;;;;49.63;26.33;;;1.40;99.90;;;;;;5077031;28;20217;-72
2022/12/03 06:30:09;;;;;;;52.80;26.80;;;1.30;99.90;;;;;;5074578;28;20254;-72
2022/12/03 06:32:35;;;;;;;48.23;25.30;;;1.30;99.90;;;;;;5074089;28;20611;-72
2022/12/03 06:35:02;;;;;;;49.20;26.57;;;1.30;99.90;;;;;;5073812;28;20197;-72
2022/12/03 06:37:29;;;;;;;48.17;26.27;;;1.30;99.90;;;;;;5073711;28;20205;-72
2022/12/03 06:39:57;;;;;;;48.90;26.00;;;1.30;99.90;;;;;;5073961;28;20196;-71
2022/12/03 06:42:24;;;;;;;46.10;25.10;;;1.30;99.90;;;;;;5073820;28;20197;-72
2022/12/03 06:44:50;;;;;;;46.30;24.57;;;1.30;99.90;;;;;;5073573;28;20193;-72
2022/12/03 06:47:17;;;;;;;47.20;26.97;;;1.30;99.90;;;;;;5073956;28;20217;-72
2022/12/03 06:49:44;;;;;;;47.07;25.10;;;1.30;99.90;;;;;;5073778;28;20254;-72
2022/12/03 06:52:10;;;;;;;49.80;25.63;;;1.30;99.90;;;;;;5073618;28;20246;-71
2022/12/03 06:54:37;;;;;;;47.43;25.43;;;1.30;99.90;;;;;;5073699;28;20201;-71
2022/12/03 06:57:05;;;;;;;50.33;26.87;;;1.30;99.90;;;;;;5073797;28;20238;-72
2022/12/03 06:59:32;;;;;;;51.30;26.23;;;1.30;99.90;;;;;;5073803;28;20201;-72
2022/12/03 07:01:59;;;;;;;45.30;25.30;;;1.30;99.90;;;;;;5073491;28;20678;-71
2022/12/03 07:04:26;;;;;;;43.73;24.37;;;1.30;99.90;;;;;;5073662;28;20247;-72
2022/12/03 07:06:53;;;;;;;43.43;24.37;;;1.30;99.90;;;;;;5074084;28;20611;-71
2022/12/03 07:09:19;;;;;;;45.40;25.47;;;1.30;99.90;;;;;;5074517;28;20247;-72
2022/12/03 07:11:46;;;;;;;43.63;24.87;;;1.30;99.90;;;;;;5074056;28;20201;-72
2022/12/03 07:14:14;;;;;;;46.70;25.13;;;1.30;99.90;;;;;;5074147;28;20193;-72
2022/12/03 07:16:42;;;;;;;46.67;25.23;;;1.30;99.90;;;;;;5074046;28;20238;-72
2022/12/03 07:19:09;;;;;;;43.60;24.60;;;1.30;99.90;;;;;;5073899;28;20204;-72
2022/12/03 07:21:36;;;;;;;42.10;23.97;;;1.30;99.90;;;;;;5074144;28;20207;-72
2022/12/03 07:24:03;;;;;;;48.30;25.17;;;1.30;99.90;;;;;;5074464;28;20197;-72
2022/12/03 07:26:29;;;;;;;44.93;24.57;;;1.40;99.90;;;;;;5074164;28;20193;-72
2022/12/03 07:28:56;;;;;;;47.33;25.60;;;1.40;99.90;;;;;;5074243;28;20225;-72
2022/12/03 07:31:24;;;;;;;48.20;25.07;;;1.40;99.90;;;;;;5074259;28;20208;-72
2022/12/03 07:33:51;;;;;;;41.20;23.37;;;1.40;99.90;;;;;;5074213;28;20251;-72
2022/12/03 07:36:17;;;;;;;45.70;23.77;;;1.40;99.90;;;;;;5073939;28;20201;-72
2022/12/03 07:38:44;;;;;;;42.90;23.40;;;1.40;99.90;;;;;;5073670;28;20204;-72
2022/12/03 07:41:11;;;;;;;42.60;23.07;;;1.40;99.90;;;;;;5073804;28;20204;-72
2022/12/03 07:43:38;;;;;;;41.17;23.43;;;1.40;99.90;;;;;;5073837;28;20656;-72
2022/12/03 07:46:05;;;;;;;42.63;24.53;;;1.40;99.90;;;;;;5074410;28;20330;-72
2022/12/03 07:48:33;;;;;;;43.93;23.87;;;1.40;99.90;;;;;;5074074;28;20229;-72
2022/12/03 07:50:59;;;;;;;44.80;24.43;;;1.40;99.90;;;;;;5074112;28;20208;-72
2022/12/03 07:53:26;;;;;;;46.70;24.53;;;1.40;99.90;;;;;;5074119;28;20200;-72
2022/12/03 07:55:53;;;;;;;45.43;24.03;;;1.40;99.90;;;;;;5074609;28;20197;-72
2022/12/03 07:58:20;;;;;;;43.90;23.83;;;1.50;99.90;;;;;;5074194;28;20652;-72
2022/12/03 08:00:46;;;;;;;41.47;23.30;;;1.50;99.90;;;;;;5075688;28;20205;-72
2022/12/03 08:03:13;;;;;;;46.40;25.63;;;1.50;99.90;;;;;;5076560;28;20201;-72
2022/12/03 08:05:41;;;;;;;41.43;23.03;;;1.50;99.90;;;;;;5076184;28;20251;-72
2022/12/03 08:08:08;;;;;;;42.77;23.13;;;1.40;99.90;;;;;;5077634;28;20237;-72
2022/12/03 08:10:34;;;;;;;42.07;23.97;;;1.50;99.90;;;;;;5080311;28;20216;-72
2022/12/03 08:13:04;;;;;;;45.63;24.00;;;1.50;99.90;;;;;;5079859;28;20193;-72
2022/12/03 08:15:31;;;;;;;43.00;23.17;;;1.40;99.90;;;;;;5080110;28;20197;-72
2022/12/03 08:18:00;;;;;;;44.20;24.07;;;1.50;99.90;;;;;;5079919;28;20211;-72
2022/12/03 08:20:29;;;;;;;41.50;23.00;;;1.50;99.90;;;;;;5079814;28;20197;-72
2022/12/03 08:22:57;;;;;;;40.77;22.87;;;1.50;99.90;;;;;;5079945;28;20203;-73
2022/12/03 08:25:26;;;;;;;39.90;23.43;;;1.50;99.90;;;;;;5077253;28;20197;-72
2022/12/03 08:27:57;;;;;;;43.00;24.07;;;1.50;99.90;;;;;;5078456;28;20270;-72
2022/12/03 08:30:23;;;;;;;40.77;23.17;;;1.60;99.90;;;;;;5079380;28;20219;-73
2022/12/03 08:32:51;;;;;;;39.87;22.27;;;1.60;99.90;;;;;;5079456;28;20714;-73
2022/12/03 08:35:23;;;;;;;36.60;21.00;;;1.60;99.90;;;;;;5081177;28;20595;-72
2022/12/03 08:37:57;;;;;;;42.03;22.57;;;1.60;99.90;;;;;;5079125;28;20713;-72
2022/12/03 08:40:33;;;;;;;41.87;23.10;;;1.70;99.90;;;;;;5079236;28;20251;-73
2022/12/03 08:43:00;;;;;;;41.13;22.80;;;1.60;99.90;;;;;;5078329;28;20220;-73
2022/12/03 08:45:38;;;;;;;37.63;22.17;;;1.70;99.90;;;;;;5078188;28;20201;-73
2022/12/03 08:48:24;;;;;;;39.60;21.93;;;1.70;99.90;;;;;;5078577;28;20256;-73
2022/12/03 08:50:51;;;;;;;39.67;21.57;;;1.70;99.90;;;;;;5077809;28;20208;-73
2022/12/03 08:53:30;;;;;;;37.40;20.87;;;1.70;99.90;;;;;;5077911;28;20247;-73
2022/12/03 08:56:00;;;;;;;40.27;22.23;;;1.60;99.90;;;;;;5078483;28;20200;-72
2022/12/03 08:58:34;;;;;;;39.43;22.63;;;1.60;99.90;;;;;;5078779;28;20201;-73
2022/12/03 09:01:14;;;;;;;37.67;22.87;;;1.60;99.90;;;;;;5078104;28;20725;-72
2022/12/03 09:03:47;;;;;;;38.90;21.00;;;1.60;99.90;;;;;;5077855;28;20197;-72
2022/12/03 09:06:13;;;;;;;41.37;23.37;;;1.60;99.90;;;;;;5077183;28;20201;-72
2022/12/03 09:08:40;;;;;;;41.53;23.13;;;1.60;99.90;;;;;;5077749;28;20696;-72
2022/12/03 09:11:08;;;;;;;39.57;22.13;;;1.60;99.90;;;;;;5079405;28;20197;-73
2022/12/03 09:13:35;;;;;;;39.10;22.43;;;1.70;99.90;;;;;;5081753;28;20192;-73
2022/12/03 09:16:01;;;;;;;36.47;22.20;;;1.60;99.90;;;;;;5077979;28;20197;-73
2022/12/03 09:18:28;;;;;;;41.93;23.23;;;1.60;99.90;;;;;;5077967;28;20525;-73
2022/12/03 09:20:55;;;;;;;38.93;22.00;;;1.70;99.90;;;;;;5077493;28;20270;-73
2022/12/03 09:23:22;;;;;;;40.30;22.80;;;1.60;99.90;;;;;;5077689;28;20224;-73
2022/12/03 09:25:49;;;;;;;40.97;23.13;;;1.60;99.90;;;;;;5078142;28;20201;-73
2022/12/03 09:28:17;;;;;;;43.00;23.63;;;1.70;99.90;;;;;;5077700;28;20217;-73
2022/12/03 09:30:43;;;;;;;37.13;21.77;;;1.70;99.90;;;;;;5076425;28;20204;-73
2022/12/03 09:33:10;;;;;;;39.30;22.63;;;1.70;99.90;;;;;;5075201;28;20227;-73
2022/12/03 09:35:37;;;;;;;38.17;22.70;;;1.60;99.90;;;;;;5074729;28;20600;-73
2022/12/03 09:38:03;;;;;;;39.50;22.03;;;1.70;99.90;;;;;;5075067;28;20609;-74
2022/12/03 09:40:30;;;;;;;41.70;23.50;;;1.70;99.90;;;;;;5075160;28;20242;-73
2022/12/03 09:42:57;;;;;;;42.93;24.53;;;1.60;99.90;;;;;;5075063;28;20231;-74
2022/12/03 09:45:25;;;;;;;44.57;23.87;;;1.70;99.90;;;;;;5074732;28;20200;-73
2022/12/03 09:47:53;;;;;;;47.73;24.73;;;1.70;99.90;;;;;;5074473;28;20553;-73
2022/12/03 09:50:23;;;;;;;42.80;23.30;;;1.60;99.90;;;;;;5074398;28;20569;-73
2022/12/03 09:52:53;;;;;;;44.70;24.57;;;1.70;99.90;;;;;;5074875;28;20197;-73
2022/12/03 09:55:22;;;;;;;43.67;23.60;;;1.70;99.90;;;;;;5074805;28;20254;-74
2022/12/03 09:57:50;;;;;;;44.70;24.23;;;1.70;99.90;;;;;;5074501;28;20207;-74
2022/12/03 10:00:20;;;;;;;43.57;24.37;;;1.80;99.90;;;;;;5074255;28;20591;-73
2022/12/03 10:02:51;;;;;;;44.27;24.67;;;1.70;99.90;;;;;;5074413;28;20678;-73
2022/12/03 10:05:21;;;;;;;43.17;24.27;;;1.80;99.90;;;;;;5074503;28;20254;-73
2022/12/03 10:07:48;;;;;;;38.73;22.20;;;1.80;99.90;;;;;;5074817;28;20236;-73
2022/12/03 10:10:16;;;;;;;41.60;23.80;;;1.80;99.90;;;;;;5074958;28;20259;-73
2022/12/03 10:12:43;;;;;;;41.63;23.63;;;1.90;99.90;;;;;;5075162;28;20201;-73
2022/12/03 10:15:13;;;;;;;41.37;23.97;;;1.90;99.90;;;;;;5074795;28;20247;-73
2022/12/03 10:17:41;;;;;;;39.40;22.80;;;1.90;99.90;;;;;;5074933;28;20204;-73
2022/12/03 10:20:12;;;;;;;38.60;21.00;;;1.90;99.90;;;;;;5074653;28;20238;-73
2022/12/03 10:22:38;;;;;;;42.80;22.17;;;1.90;99.90;;;;;;5075954;28;20197;-73
2022/12/03 10:25:08;;;;;;;40.03;21.83;;;2.00;99.90;;;;;;5074812;28;20197;-73
2022/12/03 10:27:35;;;;;;;39.47;22.37;;;2.00;99.90;;;;;;5074472;28;20292;-73
2022/12/03 10:30:05;;;;;;;38.60;22.17;;;2.00;99.90;;;;;;5074543;28;20259;-73
2022/12/03 10:32:41;;;;;;;37.07;22.07;;;2.10;99.90;;;;;;5074680;28;20284;-73
2022/12/03 10:35:12;;;;;;;38.10;23.03;;;2.10;99.90;;;;;;5074435;28;20255;-73
2022/12/03 10:37:56;;;;;;;39.03;23.43;;;2.10;99.90;;;;;;5074380;28;20203;-73
2022/12/03 10:40:25;;;;;;;40.43;22.80;;;2.10;99.90;;;;;;5074919;28;20189;-73
2022/12/03 10:42:52;;;;;;;37.17;21.43;;;2.10;99.90;;;;;;5078582;28;20627;-73
2022/12/03 10:45:21;;;;;;;38.90;22.00;;;2.00;99.90;;;;;;5073976;28;20201;-73
2022/12/03 10:48:06;;;;;;;39.33;22.80;;;2.00;99.90;;;;;;5073639;28;20288;-73
2022/12/03 10:50:35;;;;;;;38.40;22.77;;;2.00;99.90;;;;;;5073793;28;20255;-73
2022/12/03 10:53:02;;;;;;;37.67;22.53;;;2.00;99.90;;;;;;5073957;28;20288;-72
2022/12/03 10:55:35;;;;;;;36.60;21.43;;;2.00;99.90;;;;;;5074155;28;20197;-72
2022/12/03 10:58:02;;;;;;;38.77;21.10;;;1.90;99.90;;;;;;5074247;28;20196;-72
2022/12/03 11:00:28;;;;;;;37.87;22.43;;;1.90;99.90;;;;;;5074514;28;20247;-72
2022/12/03 11:02:55;;;;;;;38.33;22.90;;;1.90;99.90;;;;;;5074259;28;20201;-72
2022/12/03 11:05:26;;;;;;;38.83;22.50;;;1.90;99.90;;;;;;5074688;28;20202;-72
2022/12/03 11:07:54;;;;;;;40.33;23.30;;;1.80;99.90;;;;;;5074205;28;20738;-72
2022/12/03 11:10:21;;;;;;;38.20;22.70;;;1.80;99.90;;;;;;5074250;28;20199;-72
2022/12/03 11:13:25;;;;;;;38.53;22.47;;;1.80;99.90;;;;;;5075521;28;20202;-72
2022/12/03 11:15:52;;;;;;;44.43;24.70;;;1.80;99.90;;;;;;5070056;28;20659;-72
2022/12/03 11:18:51;;;;;;;42.30;22.60;;;1.80;99.90;;;;;;5074003;28;20656;-72
2022/12/03 11:21:18;;;;;;;36.57;21.53;;;1.80;99.90;;;;;;5077608;28;20222;-72
2022/12/03 11:24:19;;;;;;;39.57;22.90;;;1.90;99.90;;;;;;5076561;28;20200;-73
2022/12/03 11:27:16;;;;;;;38.50;21.37;;;1.80;99.90;;;;;;5073571;28;20713;-73
2022/12/03 11:30:01;;;;;;;38.10;22.00;;;1.90;99.90;;;;;;5073681;28;20627;-73
2022/12/03 11:33:07;;;;;;;37.90;20.57;;;1.80;99.90;;;;;;5074274;28;20200;-73
2022/12/03 11:36:14;;;;;;;38.10;21.50;;;1.80;99.90;;;;;;5076598;28;20220;-73
2022/12/03 11:38:53;;;;;;;40.50;22.63;;;1.90;99.90;;;;;;5078233;28;20278;-73
2022/12/03 11:41:24;;;;;;;37.53;21.37;;;1.90;99.90;;;;;;5078148;28;20205;-73
2022/12/03 11:44:12;;;;;;;37.00;22.00;;;1.90;99.90;;;;;;5078181;28;20193;-73
2022/12/03 11:46:42;;;;;;;37.80;22.03;;;1.90;99.90;;;;;;5077587;28;20193;-73
2022/12/03 11:49:35;;;;;;;39.90;22.00;;;1.90;99.90;;;;;;5077718;28;20228;-73
2022/12/03 11:52:12;;;;;;;38.53;21.67;;;1.90;99.90;;;;;;5078931;28;20258;-72
2022/12/03 11:54:38;;;;;;;37.13;22.27;;;1.90;99.90;;;;;;5078698;28;20200;-73
2022/12/03 11:57:25;;;;;;;36.83;22.03;;;1.90;99.90;;;;;;5078092;28;20656;-73
2022/12/03 12:00:05;;;;;;;36.57;21.23;;;1.90;99.90;;;;;;5077897;28;20197;-73
2022/12/03 12:02:32;;;;;;;35.60;21.07;;;1.80;99.90;;;;;;5077642;28;20200;-73
2022/12/03 12:05:21;;;;;;;36.20;21.70;;;1.80;99.90;;;;;;5079150;28;20598;-72
2022/12/03 12:07:48;;;;;;;35.00;21.63;;;1.90;99.90;;;;;;5077456;28;20229;-72
2022/12/03 12:10:48;;;;;;;37.80;23.00;;;1.80;99.90;;;;;;5077808;28;20278;-73
2022/12/03 12:13:53;;;;;;;35.97;21.70;;;1.90;99.90;;;;;;5078315;28;20201;-73
2022/12/03 12:16:48;;;;;;;42.37;22.77;;;1.80;99.90;;;;;;5078076;28;20204;-73
2022/12/03 12:19:45;;;;;;;37.73;21.80;;;1.90;99.90;;;;;;5086090;28;20227;-73
2022/12/03 12:22:17;;;;;;;36.90;21.33;;;1.90;99.90;;;;;;5044230;28;20202;-73
2022/12/03 12:24:50;;;;;;;34.20;21.73;;;1.80;99.90;;;;;;5077222;28;20261;-74
2022/12/03 12:27:18;;;;;;;36.33;22.03;;;1.80;99.90;;;;;;5085662;28;20227;-73
2022/12/03 12:29:50;;;;;;;39.27;23.37;;;1.80;99.90;;;;;;5085368;28;20228;-74
2022/12/03 12:32:23;;;;;;;36.73;22.47;;;1.80;99.90;;;;;;5085840;28;20234;-73
2022/12/03 12:34:53;;;;;;;37.90;22.33;;;1.80;99.90;;;;;;5084581;28;20193;-74
2022/12/03 12:37:22;;;;;;;39.50;22.33;;;1.90;99.90;;;;;;5076955;28;20246;-73
2022/12/03 12:39:53;;;;;;;37.40;21.47;;;1.90;99.90;;;;;;5076289;28;20197;-73
2022/12/03 12:42:29;;;;;;;36.70;21.13;;;1.80;99.90;;;;;;5076185;28;20246;-73
2022/12/03 12:45:00;;;;;;;36.30;21.87;;;1.80;99.90;;;;;;5076353;28;20235;-73
2022/12/03 12:47:30;;;;;;;38.33;22.07;;;1.80;99.90;;;;;;5076156;28;20277;-73
2022/12/03 12:49:58;;;;;;;33.37;20.50;;;1.80;99.90;;;;;;5076235;28;20779;-73
2022/12/03 12:52:25;;;;;;;35.50;19.87;;;1.90;99.90;;;;;;5076051;28;20193;-73
2022/12/03 12:54:51;;;;;;;35.40;20.10;;;1.90;99.90;;;;;;5076629;28;20649;-72
2022/12/03 12:57:21;;;;;;;34.97;20.67;;;1.90;99.90;;;;;;5075884;28;20219;-72
2022/12/03 12:59:48;;;;;;;36.30;21.50;;;1.90;99.90;;;;;;5076106;28;20197;-72
2022/12/03 13:02:40;;;;;;;36.73;21.17;;;1.80;99.90;;;;;;5076081;28;20201;-72
2022/12/03 13:05:10;;;;;;;34.40;20.77;;;1.80;99.90;;;;;;5076604;28;20235;-72
2022/12/03 13:07:37;;;;;;;55.17;36.23;;;1.80;99.90;;;;;;5076759;28;20316;-73